createdAt,value
2022-10-24T00:01:16.423Z,99332.63
2022-10-24T00:03:43.648Z,99328.00
2022-10-24T00:06:11.778Z,99328.63
2022-10-24T00:08:40.208Z,99332.84
2022-10-24T00:11:20.341Z,99323.38
2022-10-24T00:13:52.142Z,99316.22
2022-10-24T00:16:19.054Z,99315.81
2022-10-24T00:18:46.433Z,99307.38
2022-10-24T00:21:13.574Z,99308.19
2022-10-24T00:23:41.036Z,99302.09
2022-10-24T00:26:08.228Z,99306.09
2022-10-24T00:28:36.767Z,99311.78
2022-10-24T00:31:06.140Z,99305.44
2022-10-24T00:33:33.492Z,99317.03
2022-10-24T00:36:00.485Z,99312.81
2022-10-24T00:38:27.662Z,99322.25
2022-10-24T00:40:54.747Z,99321.88
2022-10-24T00:43:24.801Z,99326.06
2022-10-24T00:45:59.510Z,99334.91
2022-10-24T00:48:51.951Z,99329.25
2022-10-24T00:51:18.873Z,99326.50
2022-10-24T00:53:49.739Z,99328.56
2022-10-24T00:56:19.340Z,99325.59
2022-10-24T00:58:48.330Z,99325.56
2022-10-24T01:01:15.994Z,99325.56
2022-10-24T01:03:43.120Z,99335.44
2022-10-24T01:06:13.002Z,99324.50
2022-10-24T01:08:52.484Z,99343.66
2022-10-24T01:11:52.216Z,99330.81
2022-10-24T01:14:26.477Z,99320.31
2022-10-24T01:17:18.571Z,99319.25
2022-10-24T01:19:48.258Z,99313.38
2022-10-24T01:22:24.202Z,99311.28
2022-10-24T01:25:05.688Z,99308.97
2022-10-24T01:27:44.555Z,99303.69
2022-10-24T01:30:13.942Z,99313.34
2022-10-24T01:32:40.861Z,99309.75
2022-10-24T01:38:04.949Z,99310.63
2022-10-24T01:40:34.885Z,99309.56
2022-10-24T01:43:10.265Z,99305.78
2022-10-24T01:45:40.815Z,99309.56
2022-10-24T01:48:12.518Z,99307.69
2022-10-24T01:50:40.778Z,99300.09
2022-10-24T01:53:09.863Z,99293.53
2022-10-24T01:55:39.594Z,99293.34
2022-10-24T01:58:08.010Z,99291.47
2022-10-24T02:00:35.565Z,99295.66
2022-10-24T02:03:11.793Z,99294.41
2022-10-24T02:05:44.844Z,99287.63
2022-10-24T02:08:17.268Z,99281.28
2022-10-24T02:10:51.018Z,99273.78
2022-10-24T02:13:30.662Z,99265.56
2022-10-24T02:16:00.964Z,99260.88
2022-10-24T02:18:29.570Z,99251.81
2022-10-24T02:21:11.850Z,99253.47
2022-10-24T02:23:48.651Z,99250.50
2022-10-24T02:26:31.206Z,99243.09
2022-10-24T02:29:02.690Z,99243.50
2022-10-24T02:31:36.176Z,99245.41
2022-10-24T02:34:06.820Z,99251.91
2022-10-24T02:36:35.836Z,99252.31
2022-10-24T02:39:06.958Z,99247.44
2022-10-24T02:41:36.264Z,99246.81
2022-10-24T02:44:05.256Z,99244.91
2022-10-24T02:46:34.224Z,99248.66
2022-10-24T02:49:02.745Z,99252.25
2022-10-24T02:51:33.194Z,99249.09
2022-10-24T02:54:01.449Z,99261.28
2022-10-24T02:56:29.536Z,99260.44
2022-10-24T02:58:57.073Z,99255.38
2022-10-24T03:01:24.556Z,99257.41
2022-10-24T03:03:51.666Z,99241.28
2022-10-24T03:06:18.723Z,99248.81
2022-10-24T03:08:45.793Z,99249.88
2022-10-24T03:11:12.800Z,99250.06
2022-10-24T03:13:39.825Z,99245.19
2022-10-24T03:16:10.269Z,99241.16
2022-10-24T03:18:40.171Z,99246.00
2022-10-24T03:21:07.158Z,99248.09
2022-10-24T03:23:34.129Z,99249.59
2022-10-24T03:26:01.132Z,99256.72
2022-10-24T03:28:28.152Z,99251.84
2022-10-24T03:30:55.433Z,99257.13
2022-10-24T03:33:22.853Z,99263.63
2022-10-24T03:35:53.913Z,99266.56
2022-10-24T03:38:22.826Z,99264.69
2022-10-24T03:40:50.587Z,99262.34
2022-10-24T03:43:18.190Z,99264.03
2022-10-24T03:45:45.328Z,99268.66
2022-10-24T03:48:12.571Z,99275.44
2022-10-24T03:50:39.796Z,99276.06
2022-10-24T03:53:06.783Z,99276.06
2022-10-24T03:55:34.353Z,99270.59
2022-10-24T03:58:01.606Z,99273.66
2022-10-24T04:00:28.616Z,99277.94
2022-10-24T04:02:56.201Z,99276.69
2022-10-24T04:05:23.227Z,99276.91
2022-10-24T04:07:50.334Z,99279.84
2022-10-24T04:10:17.425Z,99289.13
2022-10-24T04:12:44.405Z,99296.47
2022-10-24T04:15:11.486Z,99295.22
2022-10-24T04:17:38.787Z,99288.09
2022-10-24T04:20:06.387Z,99288.09
2022-10-24T04:22:33.730Z,99285.34
2022-10-24T04:25:00.736Z,99279.88
2022-10-24T04:27:27.730Z,99284.34
2022-10-24T04:29:54.741Z,99288.50
2022-10-24T04:32:21.765Z,99285.34
2022-10-24T04:34:48.797Z,99275.91
2022-10-24T04:37:15.776Z,99282.00
2022-10-24T04:39:42.744Z,99281.41
2022-10-24T04:42:09.740Z,99275.72
2022-10-24T04:44:36.751Z,99276.16
2022-10-24T04:47:03.749Z,99290.84
2022-10-24T04:49:30.708Z,99286.03
2022-10-24T04:51:57.684Z,99269.63
2022-10-24T04:54:24.647Z,99289.72
2022-10-24T04:56:51.631Z,99297.53
2022-10-24T04:59:18.572Z,99291.44
2022-10-24T05:01:45.664Z,99283.44
2022-10-24T05:04:12.825Z,99282.81
2022-10-24T05:06:42.735Z,99280.50
2022-10-24T05:09:12.699Z,99279.69
2022-10-24T05:11:39.996Z,99276.09
2022-10-24T05:14:07.394Z,99272.50
2022-10-24T05:16:34.416Z,99266.41
2022-10-24T05:19:01.548Z,99272.75
2022-10-24T05:21:28.565Z,99262.63
2022-10-24T05:23:55.563Z,99265.50
2022-10-24T05:26:22.560Z,99263.22
2022-10-24T05:28:52.422Z,99256.84
2022-10-24T05:31:20.053Z,99262.50
2022-10-24T05:33:47.258Z,99262.69
2022-10-24T05:36:14.245Z,99263.75
2022-10-24T05:38:41.402Z,99264.31
2022-10-24T05:41:08.478Z,99265.06
2022-10-24T05:43:35.458Z,99268.78
2022-10-24T05:46:02.825Z,99268.72
2022-10-24T05:48:29.819Z,99272.63
2022-10-24T05:50:57.964Z,99273.00
2022-10-24T05:53:26.457Z,99271.78
2022-10-24T05:55:53.589Z,99274.53
2022-10-24T05:58:20.849Z,99281.28
2022-10-24T06:00:53.311Z,99284.59
2022-10-24T06:03:22.004Z,99281.41
2022-10-24T06:05:50.104Z,99299.22
2022-10-24T06:08:17.394Z,99299.22
2022-10-24T06:10:49.237Z,99305.13
2022-10-24T06:13:16.533Z,99306.41
2022-10-24T06:15:44.906Z,99306.22
2022-10-24T06:18:12.248Z,99298.69
2022-10-24T06:20:39.389Z,99301.69
2022-10-24T06:23:06.405Z,99301.47
2022-10-24T06:25:33.401Z,99289.53
2022-10-24T06:28:00.532Z,99300.66
2022-10-24T06:30:27.769Z,99304.44
2022-10-24T06:32:54.837Z,99303.38
2022-10-24T06:35:21.805Z,99302.97
2022-10-24T06:37:48.847Z,99299.16
2022-10-24T06:40:17.461Z,99296.22
2022-10-24T06:42:45.235Z,99304.19
2022-10-24T06:45:12.747Z,99304.00
2022-10-24T06:47:39.854Z,99315.59
2022-10-24T06:50:07.203Z,99319.34
2022-10-24T06:52:34.180Z,99336.19
2022-10-24T06:55:01.144Z,99350.28
2022-10-24T06:57:28.361Z,99338.13
2022-10-24T06:59:55.368Z,99336.00
2022-10-24T07:02:22.455Z,99334.91
2022-10-24T07:04:49.518Z,99334.09
2022-10-24T07:07:18.753Z,99332.63
2022-10-24T07:09:52.476Z,99339.84
2022-10-24T07:14:52.207Z,99334.44
2022-10-24T07:17:20.066Z,99341.28
2022-10-24T07:19:52.723Z,99346.13
2022-10-24T07:22:19.902Z,99356.72
2022-10-24T07:24:55.312Z,99356.59
2022-10-24T07:27:23.149Z,99361.53
2022-10-24T07:29:50.522Z,99360.28
2022-10-24T07:32:18.724Z,99358.38
2022-10-24T07:34:45.786Z,99347.72
2022-10-24T07:37:12.776Z,99349.63
2022-10-24T07:39:39.976Z,99355.34
2022-10-24T07:42:07.052Z,99341.72
2022-10-24T07:44:34.065Z,99346.59
2022-10-24T07:47:01.049Z,99342.66
2022-10-24T07:49:30.210Z,99341.63
2022-10-24T07:51:59.767Z,99352.25
2022-10-24T07:54:26.692Z,99339.50
2022-10-24T07:56:54.206Z,99342.06
2022-10-24T07:59:40.583Z,99343.38
2022-10-24T08:02:10.743Z,99340.88
2022-10-24T08:04:37.710Z,99336.47
2022-10-24T08:07:04.831Z,99334.81
2022-10-24T08:09:31.845Z,99333.97
2022-10-24T08:11:58.843Z,99321.53
2022-10-24T08:14:25.825Z,99328.72
2022-10-24T08:16:52.841Z,99317.16
2022-10-24T08:19:19.881Z,99323.09
2022-10-24T08:21:46.905Z,99314.63
2022-10-24T08:24:13.878Z,99311.47
2022-10-24T08:26:40.857Z,99317.59
2022-10-24T08:29:07.924Z,99319.50
2022-10-24T08:31:34.919Z,99310.66
2022-10-24T08:34:03.883Z,99310.66
2022-10-24T08:36:32.666Z,99308.97
2022-10-24T08:39:00.842Z,99308.31
2022-10-24T08:41:33.265Z,99306.03
2022-10-24T08:44:04.314Z,99305.38
2022-10-24T08:46:45.405Z,99301.78
2022-10-24T08:49:51.514Z,99293.81
2022-10-24T08:52:35.312Z,99298.19
2022-10-24T08:58:14.989Z,99299.19
2022-10-24T09:00:45.023Z,99286.47
2022-10-24T09:03:26.530Z,99285.38
2022-10-24T09:06:06.568Z,99287.00
2022-10-24T09:08:39.280Z,99297.47
2022-10-24T09:11:07.425Z,99290.44
2022-10-24T09:13:37.812Z,99300.06
2022-10-24T09:16:05.345Z,99298.94
2022-10-24T09:18:41.401Z,99288.28
2022-10-24T09:21:11.471Z,99286.34
2022-10-24T09:23:38.835Z,99283.81
2022-10-24T09:26:13.532Z,99285.72
2022-10-24T09:28:41.502Z,99287.13
2022-10-24T09:31:20.438Z,99293.91
2022-10-24T09:33:49.991Z,99285.97
2022-10-24T09:36:19.504Z,99282.88
2022-10-24T09:38:47.887Z,99284.28
2022-10-24T09:41:22.920Z,99289.13
2022-10-24T09:43:54.028Z,99279.91
2022-10-24T09:46:20.948Z,99289.38
2022-10-24T09:48:58.875Z,99287.72
2022-10-24T09:51:33.364Z,99284.59
2022-10-24T09:54:20.356Z,99291.19
2022-10-24T09:56:55.235Z,99290.31
2022-10-24T09:59:40.982Z,99290.66
2022-10-24T10:02:10.753Z,99291.63
2022-10-24T10:04:38.691Z,99286.09
2022-10-24T10:07:16.535Z,99296.13
2022-10-24T10:09:56.429Z,99297.75
2022-10-24T10:12:41.624Z,99295.84
2022-10-24T10:15:53.466Z,99308.81
2022-10-24T10:18:22.498Z,99315.84
2022-10-24T10:21:08.213Z,99312.69
2022-10-24T10:23:36.868Z,99319.63
2022-10-24T10:26:20.752Z,99308.41
2022-10-24T10:28:53.681Z,99311.09
2022-10-24T10:31:41.437Z,99317.69
2022-10-24T10:34:23.749Z,99317.22
2022-10-24T10:37:06.018Z,99312.03
2022-10-24T10:39:50.970Z,99309.94
2022-10-24T10:42:34.644Z,99316.13
2022-10-24T10:45:25.600Z,99313.28
2022-10-24T10:48:21.340Z,99317.31
2022-10-24T10:50:52.250Z,99317.72
2022-10-24T10:53:50.277Z,99301.53
2022-10-24T10:56:26.427Z,99304.28
2022-10-24T10:59:15.325Z,99302.28
2022-10-24T11:01:52.702Z,99313.19
2022-10-24T11:04:28.869Z,99311.69
2022-10-24T11:07:21.551Z,99305.13
2022-10-24T11:09:51.652Z,99313.75
2022-10-24T11:12:42.495Z,99302.34
2022-10-24T11:15:24.650Z,99294.16
2022-10-24T11:18:06.885Z,99303.75
2022-10-24T11:20:51.852Z,99291.22
2022-10-24T11:23:32.239Z,99292.88
2022-10-24T11:26:07.435Z,99298.88
2022-10-24T11:29:11.591Z,99295.41
2022-10-24T11:34:50.803Z,99280.03
2022-10-24T11:37:24.324Z,99289.00
2022-10-24T11:39:57.607Z,99290.50
2022-10-24T11:42:37.662Z,99291.47
2022-10-24T11:45:12.192Z,99289.69
2022-10-24T11:47:59.691Z,99304.59
2022-10-24T11:50:54.072Z,99311.53
2022-10-24T11:53:30.374Z,99306.28
2022-10-24T11:56:27.145Z,99319.19
2022-10-24T11:58:54.349Z,99311.16
2022-10-24T12:01:52.443Z,99317.97
2022-10-24T12:04:31.301Z,99310.84
2022-10-24T12:07:33.962Z,99309.50
2022-10-24T12:10:03.794Z,99315.53
2022-10-24T12:12:42.972Z,99304.88
2022-10-24T12:15:34.634Z,99303.06
2022-10-24T12:18:11.825Z,99303.91
2022-10-24T12:20:40.315Z,99301.00
2022-10-24T12:23:07.922Z,99295.41
2022-10-24T12:25:37.430Z,99299.34
2022-10-24T12:28:07.973Z,99295.00
2022-10-24T12:30:36.501Z,99294.16
2022-10-24T12:33:25.713Z,99303.59
2022-10-24T12:35:53.749Z,99294.69
2022-10-24T12:38:26.801Z,99293.75
2022-10-24T12:41:04.041Z,99300.69
2022-10-24T12:43:36.290Z,99288.66
2022-10-24T12:46:21.800Z,99289.41
2022-10-24T12:48:59.128Z,99296.88
2022-10-24T12:51:34.602Z,99279.63
2022-10-24T12:54:03.249Z,99284.38
2022-10-24T12:56:32.777Z,99279.28
2022-10-24T12:59:21.241Z,99268.31
2022-10-24T13:01:50.106Z,99267.53
2022-10-24T13:04:35.916Z,99274.69
2022-10-24T13:07:17.979Z,99265.28
2022-10-24T13:09:53.654Z,99255.56
2022-10-24T13:12:23.605Z,99254.13
2022-10-24T13:15:09.522Z,99250.00
2022-10-24T13:17:54.141Z,99257.59
2022-10-24T13:20:44.633Z,99259.66
2022-10-24T13:23:18.207Z,99254.97
2022-10-24T13:25:45.567Z,99246.50
2022-10-24T13:28:21.644Z,99251.03
2022-10-24T13:30:58.173Z,99247.34
2022-10-24T13:33:31.986Z,99245.94
2022-10-24T13:36:10.860Z,99248.13
2022-10-24T13:38:41.527Z,99257.66
2022-10-24T13:41:12.533Z,99241.94
2022-10-24T13:43:46.707Z,99258.25
2022-10-24T13:46:25.227Z,99252.72
2022-10-24T13:48:53.047Z,99249.03
2022-10-24T13:51:36.943Z,99255.00
2022-10-24T13:54:13.788Z,99253.31
2022-10-24T13:56:42.476Z,99255.06
2022-10-24T13:59:27.900Z,99264.34
2022-10-24T14:01:57.839Z,99256.41
2022-10-24T14:04:27.151Z,99254.69
2022-10-24T14:07:01.169Z,99261.69
2022-10-24T14:09:28.463Z,99257.91
2022-10-24T14:11:55.877Z,99253.28
2022-10-24T14:14:28.092Z,99258.16
2022-10-24T14:17:24.129Z,99258.56
2022-10-24T14:19:55.521Z,99276.66
2022-10-24T14:22:24.975Z,99275.63
2022-10-24T14:24:51.894Z,99273.75
2022-10-24T14:27:20.127Z,99270.09
2022-10-24T14:29:59.543Z,99269.94
2022-10-24T14:32:28.526Z,99268.03
2022-10-24T14:34:58.514Z,99270.47
2022-10-24T14:37:33.336Z,99266.06
2022-10-24T14:40:01.238Z,99265.22
2022-10-24T14:42:28.775Z,99267.00
2022-10-24T14:44:58.284Z,99279.16
2022-10-24T14:47:27.168Z,99284.47
2022-10-24T14:50:00.238Z,99278.81
2022-10-24T14:52:27.297Z,99282.53
2022-10-24T14:55:03.766Z,99270.91
2022-10-24T14:57:32.876Z,99280.72
2022-10-24T15:00:03.066Z,99281.72
2022-10-24T15:02:32.637Z,99285.78
2022-10-24T15:05:19.078Z,99279.94
2022-10-24T15:08:28.142Z,99282.06
2022-10-24T15:11:16.525Z,99279.66
2022-10-24T15:13:48.202Z,99285.28
2022-10-24T15:16:35.256Z,99282.41
2022-10-24T15:19:02.735Z,99286.50
2022-10-24T15:21:43.685Z,99299.31
2022-10-24T15:24:21.794Z,99294.88
2022-10-24T15:26:49.319Z,99296.44
2022-10-24T15:29:21.938Z,99294.31
2022-10-24T15:31:50.744Z,99294.91
2022-10-24T15:34:20.605Z,99301.25
2022-10-24T15:36:49.594Z,99299.03
2022-10-24T15:39:19.934Z,99304.19
2022-10-24T15:41:47.711Z,99304.97
2022-10-24T15:44:21.724Z,99313.50
2022-10-24T15:46:49.425Z,99313.03
2022-10-24T15:49:16.650Z,99317.53
2022-10-24T15:51:49.113Z,99314.44
2022-10-24T15:54:20.160Z,99313.44
2022-10-24T15:56:47.351Z,99313.53
2022-10-24T15:59:14.459Z,99315.50
2022-10-24T16:01:45.417Z,99311.38
2022-10-24T16:04:13.087Z,99314.88
2022-10-24T16:06:40.069Z,99331.00
2022-10-24T16:09:14.736Z,99323.59
2022-10-24T16:11:41.747Z,99329.81
2022-10-24T16:14:16.511Z,99332.63
2022-10-24T16:16:43.883Z,99332.69
2022-10-24T16:19:11.378Z,99337.78
2022-10-24T16:21:40.094Z,99338.31
2022-10-24T16:24:08.495Z,99342.78
2022-10-24T16:26:36.504Z,99348.97
2022-10-24T16:29:04.352Z,99353.19
2022-10-24T16:31:32.366Z,99353.50
2022-10-24T16:33:59.454Z,99357.13
2022-10-24T16:36:26.771Z,99365.59
2022-10-24T16:38:53.790Z,99366.72
2022-10-24T16:41:23.408Z,99370.09
2022-10-24T16:43:53.971Z,99371.63
2022-10-24T16:46:21.954Z,99372.25
2022-10-24T16:48:49.297Z,99369.97
2022-10-24T16:51:23.574Z,99381.44
2022-10-24T16:53:50.652Z,99375.31
2022-10-24T16:56:17.674Z,99382.28
2022-10-24T16:58:44.773Z,99380.63
2022-10-24T17:01:14.650Z,99388.00
2022-10-24T17:03:43.617Z,99392.00
2022-10-24T17:06:10.813Z,99386.75
2022-10-24T17:08:37.864Z,99382.72
2022-10-24T17:11:09.551Z,99391.63
2022-10-24T17:13:43.373Z,99389.09
2022-10-24T17:16:11.136Z,99384.03
2022-10-24T17:18:38.513Z,99397.16
2022-10-24T17:21:05.856Z,99393.34
2022-10-24T17:23:33.670Z,99399.66
2022-10-24T17:26:01.239Z,99398.19
2022-10-24T17:28:33.045Z,99397.75
2022-10-24T17:31:00.540Z,99400.50
2022-10-24T17:33:27.617Z,99412.28
2022-10-24T17:35:57.482Z,99411.44
2022-10-24T17:38:30.618Z,99421.75
2022-10-24T17:41:07.165Z,99411.22
2022-10-24T17:43:34.364Z,99421.53
2022-10-24T17:46:01.640Z,99425.34
2022-10-24T17:48:28.786Z,99421.09
2022-10-24T17:50:58.383Z,99424.28
2022-10-24T17:53:25.376Z,99419.81
2022-10-24T17:55:52.398Z,99418.13
2022-10-24T17:58:19.413Z,99421.72
2022-10-24T18:00:46.636Z,99423.59
2022-10-24T18:03:14.467Z,99425.06
2022-10-24T18:05:41.496Z,99425.91
2022-10-24T18:08:10.957Z,99432.41
2022-10-24T18:10:39.158Z,99433.47
2022-10-24T18:13:07.289Z,99437.25
2022-10-24T18:15:35.477Z,99433.84
2022-10-24T18:18:02.537Z,99428.81
2022-10-24T18:20:29.594Z,99442.03
2022-10-24T18:22:58.071Z,99441.59
2022-10-24T18:25:25.053Z,99455.69
2022-10-24T18:27:52.141Z,99457.59
2022-10-24T18:30:19.556Z,99457.13
2022-10-24T18:32:47.265Z,99460.88
2022-10-24T18:35:15.014Z,99457.91
2022-10-24T18:37:42.094Z,99459.31
2022-10-24T18:40:09.767Z,99463.31
2022-10-24T18:42:39.689Z,99470.22
2022-10-24T18:45:11.071Z,99476.69
2022-10-24T18:47:38.443Z,99477.03
2022-10-24T18:50:05.978Z,99485.63
2022-10-24T18:52:39.930Z,99477.38
2022-10-24T18:55:26.488Z,99490.56
2022-10-24T18:57:54.152Z,99501.97
2022-10-24T19:00:23.927Z,99499.69
2022-10-24T19:03:31.237Z,99504.78
2022-10-24T19:06:09.053Z,99494.84
2022-10-24T19:08:36.181Z,99498.63
2022-10-24T19:11:03.405Z,99506.00
2022-10-24T19:13:30.504Z,99502.22
2022-10-24T19:16:02.222Z,99496.75
2022-10-24T19:18:32.568Z,99497.16
2022-10-24T19:21:00.435Z,99490.84
2022-10-24T19:23:27.614Z,99493.78
2022-10-24T19:25:54.599Z,99496.31
2022-10-24T19:28:22.269Z,99502.03
2022-10-24T19:30:49.502Z,99500.63
2022-10-24T19:33:16.742Z,99501.72
2022-10-24T19:35:44.680Z,99500.91
2022-10-24T19:38:11.627Z,99498.63
2022-10-24T19:40:44.959Z,99496.78
2022-10-24T19:43:12.127Z,99495.53
2022-10-24T19:45:45.633Z,99498.94
2022-10-24T19:48:17.908Z,99495.34
2022-10-24T19:50:44.903Z,99498.66
2022-10-24T19:55:44.057Z,99505.00
2022-10-24T19:58:12.827Z,99513.19
2022-10-24T20:00:40.526Z,99512.16
2022-10-24T20:03:08.018Z,99510.06
2022-10-24T20:05:35.308Z,99507.34
2022-10-24T20:08:02.579Z,99519.97
2022-10-24T20:10:29.628Z,99518.47
2022-10-24T20:12:56.678Z,99512.56
2022-10-24T20:15:23.649Z,99512.97
2022-10-24T20:17:50.613Z,99513.78
2022-10-24T20:20:17.685Z,99507.88
2022-10-24T20:22:45.035Z,99509.75
2022-10-24T20:25:12.306Z,99510.63
2022-10-24T20:27:39.265Z,99516.94
2022-10-24T20:30:06.825Z,99509.75
2022-10-24T20:32:33.833Z,99517.78
2022-10-24T20:35:00.789Z,99502.84
2022-10-24T20:37:27.743Z,99513.41
2022-10-24T20:39:54.777Z,99521.22
2022-10-24T20:42:21.774Z,99514.50
2022-10-24T20:44:48.780Z,99518.53
2022-10-24T20:47:15.876Z,99520.44
2022-10-24T20:49:42.830Z,99512.03
2022-10-24T20:54:36.892Z,99523.69
2022-10-24T20:57:04.046Z,99535.47
2022-10-24T20:59:30.993Z,99534.44
2022-10-24T21:01:58.166Z,99537.81
2022-10-24T21:04:25.246Z,99534.00
2022-10-24T21:06:52.241Z,99535.94
2022-10-24T21:09:19.253Z,99538.28
2022-10-24T21:11:46.330Z,99540.16
2022-10-24T21:14:13.488Z,99537.63
2022-10-24T21:16:40.447Z,99544.16
2022-10-24T21:19:07.430Z,99549.16
2022-10-24T21:21:34.462Z,99543.44
2022-10-24T21:24:04.484Z,99545.53
2022-10-24T21:26:35.150Z,99551.22
2022-10-24T21:29:20.697Z,99558.56
2022-10-24T21:31:50.500Z,99562.59
2022-10-24T21:34:18.463Z,99564.09
2022-10-24T21:36:45.632Z,99560.97
2022-10-24T21:39:14.601Z,99566.69
2022-10-24T21:41:42.320Z,99551.97
2022-10-24T21:44:09.841Z,99561.25
2022-10-24T21:46:37.026Z,99554.09
2022-10-24T21:49:04.029Z,99555.75
2022-10-24T21:51:33.516Z,99560.00
2022-10-24T21:54:03.345Z,99558.50
2022-10-24T21:56:32.566Z,99561.66
2022-10-24T22:01:38.057Z,99574.88
2022-10-24T22:04:06.221Z,99578.69
2022-10-24T22:06:35.156Z,99576.34
2022-10-24T22:09:04.017Z,99579.50
2022-10-24T22:11:32.430Z,99589.34
2022-10-24T22:14:00.247Z,99582.34
2022-10-24T22:16:29.767Z,99588.81
2022-10-24T22:19:00.449Z,99585.59
2022-10-24T22:21:29.288Z,99586.47
2022-10-24T22:24:00.943Z,99596.31
2022-10-24T22:26:28.685Z,99599.63
2022-10-24T22:28:55.886Z,99605.28
2022-10-24T22:31:24.257Z,99591.78
2022-10-24T22:33:51.876Z,99600.22
2022-10-24T22:36:40.018Z,99598.50
2022-10-24T22:39:14.325Z,99612.78
2022-10-24T22:41:42.501Z,99612.19
2022-10-24T22:44:11.256Z,99620.66
2022-10-24T22:46:41.176Z,99623.38
2022-10-24T22:49:24.684Z,99622.16
2022-10-24T22:51:51.850Z,99623.59
2022-10-24T22:54:22.953Z,99623.47
2022-10-24T22:56:50.461Z,99619.53
2022-10-24T22:59:17.934Z,99630.06
2022-10-24T23:02:04.935Z,99622.47
2022-10-24T23:04:46.881Z,99621.81
2022-10-24T23:07:30.433Z,99621.44
2022-10-24T23:09:57.309Z,99619.53
2022-10-24T23:12:24.579Z,99628.59
2022-10-24T23:14:52.341Z,99619.13
2022-10-24T23:17:28.177Z,99626.56
2022-10-24T23:19:56.693Z,99629.75
2022-10-24T23:22:26.641Z,99617.97
2022-10-24T23:24:56.388Z,99620.91
2022-10-24T23:27:34.045Z,99623.25
2022-10-24T23:30:26.767Z,99617.34
2022-10-24T23:32:54.209Z,99624.50
2022-10-24T23:35:22.219Z,99632.34
2022-10-24T23:37:51.307Z,99631.28
2022-10-24T23:40:30.031Z,99634.25
2022-10-24T23:42:57.651Z,99640.50
2022-10-24T23:45:28.123Z,99642.81
2022-10-24T23:48:15.946Z,99636.84
2022-10-24T23:50:52.121Z,99644.44
2022-10-24T23:53:46.783Z,99644.19
2022-10-24T23:56:14.104Z,99644.13
2022-10-24T23:58:41.036Z,99662.81
